Time;durP1;ratioP1;P1;durP2;ratioP2;P2;SDS_P1;SDS_P2;PMS_P1;PMS_P2;Temp;Humidity;BMP_temperature;BMP_pressure;BME280_temperature;BME280_humidity;BME280_pressure;Samples;Min_cycle;Max_cycle;Signal;HPM_P1;HPM_P2
2022/06/04 00:00:15;;;;;;;32.92;10.15;;;;;;;22.44;61.86;95668.84;4918267;29;20043;-83
2022/06/04 00:02:44;;;;;;;29.80;10.70;;;;;;;22.45;62.14;95692.06;4917800;29;20028;-83
2022/06/04 00:05:11;;;;;;;32.17;10.77;;;;;;;22.33;62.56;95682.03;4935261;29;20050;-83
2022/06/04 00:07:37;;;;;;;31.38;11.65;;;;;;;21.50;62.61;95554.59;4918195;29;20027;-83
2022/06/04 00:15:39;;;;;;;24.50;10.90;;;;;;;22.41;62.13;95691.16;4935109;29;20095;-83
2022/06/04 00:18:05;;;;;;;17.02;10.15;;;;;;;21.77;61.74;95607.16;4917556;29;20035;-84
2022/06/04 00:20:30;;;;;;;20.85;10.38;;;;;;;22.43;61.68;95702.41;4934550;29;20063;-83
2022/06/04 00:23:01;;;;;;;23.02;10.60;;;;;;;22.14;62.46;95667.47;4934065;29;20483;-84
2022/06/04 00:25:27;;;;;;;19.92;10.55;;;;;;;21.63;62.52;95596.69;4917834;29;20076;-84
2022/06/04 00:27:52;;;;;;;27.92;10.85;;;;;;;21.82;62.84;95618.53;4919668;29;20023;-84
2022/06/04 00:30:18;;;;;;;26.73;10.68;;;;;;;21.83;62.44;95614.72;4919456;29;20127;-83
2022/06/04 00:32:43;;;;;;;27.42;9.68;;;;;;;21.57;62.47;95573.72;4936327;29;20031;-82
2022/06/04 00:35:09;;;;;;;20.00;10.07;;;;;;;21.97;62.50;95646.06;4917379;29;20046;-84
2022/06/04 00:37:35;;;;;;;19.80;9.55;;;;;;;22.23;62.78;95685.16;4934871;29;20035;-83
2022/06/04 00:40:03;;;;;;;22.13;9.95;;;;;;;22.13;62.21;95650.47;4917712;29;20046;-83
2022/06/04 00:42:28;;;;;;;17.02;9.43;;;;;;;22.08;62.46;95648.00;4935124;29;20050;-83
2022/06/04 00:45:16;;;;;;;26.58;10.35;;;;;;;22.25;62.51;95672.13;4935256;29;20403;-84
2022/06/04 00:47:41;;;;;;;16.10;10.40;;;;;;;21.77;62.49;95596.38;4934932;29;20031;-83
2022/06/04 00:50:09;;;;;;;19.23;10.30;;;;;;;21.80;62.25;95591.09;4934352;29;20046;-83
2022/06/04 00:52:36;;;;;;;21.25;10.38;;;;;;;21.56;62.49;95547.84;4934306;29;20446;-82
2022/06/04 00:55:04;;;;;;;16.25;8.48;;;;;;;21.79;62.78;95596.81;4934056;29;20471;-83
2022/06/04 00:57:52;;;;;;;19.30;10.07;;;;;;;22.19;62.68;95653.75;4917137;29;20071;-83
2022/06/04 01:00:26;;;;;;;20.00;10.07;;;;;;;22.18;62.77;95658.38;4932782;29;20062;-83
2022/06/04 01:03:26;;;;;;;18.10;10.50;;;;;;;22.18;62.66;95650.28;4934816;29;20095;-83
2022/06/04 01:05:57;;;;;;;16.25;10.75;;;;;;;22.18;62.74;95652.19;4917047;29;20036;-83
2022/06/04 01:08:53;;;;;;;18.73;10.25;;;;;;;22.08;63.31;95655.31;4933963;29;20032;-83
2022/06/04 01:12:09;;;;;;;21.13;10.77;;;;;;;21.77;64.27;95653.06;4916896;29;20159;-82
2022/06/04 01:14:39;;;;;;;23.17;10.50;;;;;;;21.68;64.41;95638.84;4933931;29;20426;-84
2022/06/04 01:17:17;;;;;;;20.45;11.98;;;;;;;21.80;64.11;95638.91;4934318;29;20549;-84
2022/06/04 01:19:58;;;;;;;18.15;10.23;;;;;;;21.82;63.86;95650.13;4934196;29;20035;-83
2022/06/04 01:22:30;;;;;;;24.05;10.23;;;;;;;21.86;63.67;95648.38;4937689;29;20050;-84
2022/06/04 01:25:40;;;;;;;22.35;10.77;;;;;;;21.51;64.99;95648.69;4938064;29;20043;-84
2022/06/04 01:28:09;;;;;;;22.23;12.32;;;;;;;21.70;64.45;95650.13;4866544;29;20050;-83
2022/06/04 01:30:47;;;;;;;26.15;12.60;;;;;;;20.85;64.97;95536.44;4933053;29;20174;-83
2022/06/04 01:33:34;;;;;;;20.45;11.50;;;;;;;21.75;64.42;95636.41;4938342;29;20193;-83
2022/06/04 01:36:08;;;;;;;21.98;12.82;;;;;;;21.78;64.24;95631.13;4923215;29;20422;-83
2022/06/04 01:38:39;;;;;;;25.52;12.48;;;;;;;21.79;64.32;95629.22;4922234;29;20070;-84
2022/06/04 01:41:15;;;;;;;22.83;12.05;;;;;;;21.53;64.15;95587.09;4939063;29;20043;-83
2022/06/04 01:43:49;;;;;;;24.77;11.75;;;;;;;21.30;64.26;95560.81;4937675;29;20043;-83
2022/06/04 01:46:23;;;;;;;20.80;12.43;;;;;;;21.82;64.30;95642.84;4937610;29;20138;-83
2022/06/04 01:48:56;;;;;;;25.60;12.25;;;;;;;21.43;64.41;95587.50;4937372;29;20130;-83
2022/06/04 01:51:26;;;;;;;25.52;12.55;;;;;;;21.78;64.47;95635.75;4920543;29;20442;-84
2022/06/04 01:53:56;;;;;;;23.88;11.73;;;;;;;20.80;64.02;95483.53;4937479;29;20043;-84
2022/06/04 01:56:28;;;;;;;29.87;12.33;;;;;;;21.70;64.75;95631.22;4936189;29;20044;-83
2022/06/04 01:59:00;;;;;;;20.13;11.77;;;;;;;21.78;64.13;95628.44;4937438;29;20079;-83
2022/06/04 02:01:32;;;;;;;18.17;11.43;;;;;;;21.17;64.26;95552.69;4938025;29;20031;-83
2022/06/04 02:04:06;;;;;;;21.98;11.98;;;;;;;20.99;64.30;95542.34;4935200;29;20048;-83
2022/06/04 02:06:41;;;;;;;26.00;12.70;;;;;;;21.52;64.92;95650.25;4937164;29;20087;-84
2022/06/04 02:09:16;;;;;;;19.27;12.82;;;;;;;20.65;65.75;95568.44;4937154;29;20190;-83
2022/06/04 02:11:51;;;;;;;25.38;12.43;;;;;;;20.27;65.59;95532.69;4935310;29;20046;-83
2022/06/04 02:14:17;;;;;;;18.70;13.00;;;;;;;21.24;65.69;95683.50;4919563;29;20063;-83
2022/06/04 02:17:01;;;;;;;30.08;13.57;;;;;;;21.10;66.07;95689.94;4919137;29;20147;-84
2022/06/04 02:19:26;;;;;;;26.67;14.10;;;;;;;20.61;65.56;95589.06;4919287;29;20043;-84
2022/06/04 02:21:54;;;;;;;21.65;13.00;;;;;;;20.91;65.24;95634.84;4919081;29;20032;-83
2022/06/04 02:24:20;;;;;;;20.35;13.23;;;;;;;20.62;65.21;95582.56;4936282;29;20031;-83
2022/06/04 02:26:45;;;;;;;20.25;12.30;;;;;;;21.41;64.74;95702.28;4936528;29;20406;-83
2022/06/04 02:29:11;;;;;;;26.60;14.88;;;;;;;21.03;65.13;95657.31;4934877;29;20038;-84
2022/06/04 02:31:49;;;;;;;31.15;14.07;;;;;;;20.77;65.68;95621.63;4919303;29;20028;-83
2022/06/04 02:34:23;;;;;;;17.70;12.38;;;;;;;20.98;64.75;95635.16;4936164;29;20042;-83
2022/06/04 02:37:14;;;;;;;25.05;12.52;;;;;;;21.02;64.92;95636.84;4936608;29;20066;-83
2022/06/04 02:39:57;;;;;;;26.55;13.50;;;;;;;21.41;65.00;95694.97;4936079;29;20089;-83
2022/06/04 02:42:49;;;;;;;27.40;13.60;;;;;;;21.09;64.84;95649.81;4918421;29;20515;-83
2022/06/04 02:45:27;;;;;;;20.23;12.90;;;;;;;21.44;64.69;95698.91;4935958;29;20414;-83
2022/06/04 02:47:59;;;;;;;25.63;12.38;;;;;;;21.33;65.08;95685.03;4935778;29;20035;-83
2022/06/04 02:50:30;;;;;;;17.98;12.43;;;;;;;21.07;65.66;95670.91;4935266;29;20043;-83
2022/06/04 02:52:57;;;;;;;20.73;12.73;;;;;;;20.78;66.18;95647.47;4936536;29;20032;-83
2022/06/04 02:55:28;;;;;;;19.88;12.68;;;;;;;20.17;66.82;95586.91;4935897;29;20566;-83
2022/06/04 02:57:59;;;;;;;19.20;12.95;;;;;;;20.93;66.77;95681.16;4935974;29;20032;-83
2022/06/04 03:00:26;;;;;;;19.27;12.18;;;;;;;20.96;66.33;95688.59;4918530;29;20463;-83
2022/06/04 03:02:52;;;;;;;25.30;13.27;;;;;;;20.23;66.59;95585.59;4936591;29;20102;-83
2022/06/04 03:05:21;;;;;;;16.10;11.82;;;;;;;20.46;66.14;95619.28;4918965;29;20053;-83
2022/06/04 03:07:51;;;;;;;19.35;12.75;;;;;;;21.02;65.99;95690.78;4936216;29;20083;-83
2022/06/04 03:10:28;;;;;;;20.02;13.07;;;;;;;20.33;66.17;95602.22;4918802;29;20067;-83
2022/06/04 03:12:53;;;;;;;19.17;13.40;;;;;;;20.13;66.80;95583.31;4935991;29;20067;-83
2022/06/04 03:15:19;;;;;;;26.45;13.20;;;;;;;20.58;66.89;95643.63;4918563;29;20032;-83
2022/06/04 03:17:46;;;;;;;18.45;13.15;;;;;;;20.84;66.69;95665.03;4934593;29;20130;-83
2022/06/04 03:20:22;;;;;;;18.90;12.52;;;;;;;20.81;66.57;95652.22;4935548;29;20482;-83
2022/06/04 03:22:49;;;;;;;24.77;14.00;;;;;;;20.76;66.30;95631.63;4935520;29;20031;-83
2022/06/04 03:25:15;;;;;;;17.77;12.43;;;;;;;20.11;66.13;95529.78;4918627;29;20102;-83
2022/06/04 03:27:40;;;;;;;23.15;13.75;;;;;;;20.40;66.65;95596.34;4934040;29;20073;-83
2022/06/04 03:30:07;;;;;;;19.98;13.30;;;;;;;21.00;66.37;95659.84;4917923;29;20059;-83
2022/06/04 03:32:33;;;;;;;22.20;13.10;;;;;;;21.00;66.36;95657.16;4935166;29;20024;-83
2022/06/04 03:34:58;;;;;;;20.45;13.65;;;;;;;20.53;66.17;95578.34;4935426;29;20046;-83
2022/06/04 03:37:24;;;;;;;20.58;13.85;;;;;;;20.69;66.10;95614.38;4935637;29;20035;-83
2022/06/04 03:39:50;;;;;;;17.90;12.90;;;;;;;21.12;66.18;95668.03;4935155;29;20483;-83
2022/06/04 03:42:15;;;;;;;27.40;13.55;;;;;;;20.32;65.92;95533.28;4935219;29;20110;-83
2022/06/04 03:44:46;;;;;;;23.40;13.98;;;;;;;21.00;65.55;95622.91;4933370;29;20121;-83
2022/06/04 03:47:12;;;;;;;23.02;13.00;;;;;;;20.84;65.79;95602.22;4918384;29;20101;-83
2022/06/04 03:49:37;;;;;;;23.52;14.55;;;;;;;20.82;65.79;95585.63;4933479;29;20071;-83
2022/06/04 03:52:03;;;;;;;25.75;13.88;;;;;;;20.71;66.19;95582.50;4934943;29;20510;-83
2022/06/04 03:59:56;;;;;;;26.27;15.35;;;;;;;20.73;65.67;95580.28;4934812;29;20059;-83
2022/06/04 04:02:21;;;;;;;27.02;14.23;;;;;;;21.17;65.46;95628.19;4935251;29;20790;-83
2022/06/04 04:04:47;;;;;;;27.27;14.02;;;;;;;21.03;65.29;95603.38;4917511;29;20067;-83
2022/06/04 04:07:14;;;;;;;20.55;13.40;;;;;;;21.06;65.32;95624.28;4917615;29;20028;-83
2022/06/04 04:09:40;;;;;;;26.33;13.85;;;;;;;21.12;65.17;95641.84;4933264;29;20122;-83
2022/06/04 04:12:06;;;;;;;23.83;14.88;;;;;;;21.42;65.11;95674.97;4917604;29;20055;-83
2022/06/04 04:14:31;;;;;;;29.05;14.93;;;;;;;20.79;64.96;95611.31;4918174;29;20035;-83
2022/06/04 04:16:57;;;;;;;25.83;15.75;;;;;;;20.59;65.02;95582.44;4938176;29;20042;-83
2022/06/04 04:19:26;;;;;;;29.50;15.85;;;;;;;20.54;64.73;95583.41;4918933;29;20031;-83
2022/06/04 04:21:52;;;;;;;35.22;16.45;;;;;;;20.82;65.25;95626.06;4936545;29;20106;-84
2022/06/04 04:24:17;;;;;;;23.20;14.15;;;;;;;21.35;64.40;95682.81;4917646;29;20062;-83
2022/06/04 04:26:43;;;;;;;17.02;13.95;;;;;;;20.72;64.21;95559.84;4934062;29;20118;-84
2022/06/04 04:29:09;;;;;;;32.50;16.33;;;;;;;21.23;64.01;95628.78;4934861;29;20050;-84
2022/06/04 04:31:36;;;;;;;32.88;14.57;;;;;;;20.89;63.83;95578.59;4917087;29;20031;-83
2022/06/04 04:34:01;;;;;;;24.05;14.80;;;;;;;21.29;63.87;95664.44;4917368;29;20482;-84
2022/06/04 04:36:30;;;;;;;19.80;14.13;;;;;;;21.52;64.26;95703.44;4934446;29;20476;-84
2022/06/04 04:38:56;;;;;;;20.85;15.18;;;;;;;21.32;63.68;95659.19;4934378;29;20067;-83
2022/06/04 04:41:22;;;;;;;25.90;15.43;;;;;;;21.34;64.02;95675.03;4917224;29;20499;-84
2022/06/04 04:43:49;;;;;;;26.95;15.32;;;;;;;21.21;64.08;95649.13;4933111;29;20039;-84
2022/06/04 04:46:15;;;;;;;25.17;15.02;;;;;;;21.43;63.28;95657.66;4934357;29;20410;-83
2022/06/04 04:48:41;;;;;;;26.48;15.18;;;;;;;21.29;63.92;95669.81;4933980;29;20055;-83
2022/06/04 04:51:15;;;;;;;42.30;28.17;;;;;;;21.25;63.49;95663.53;4933557;29;20098;-83
2022/06/04 04:53:41;;;;;;;44.53;33.53;;;;;;;21.19;64.28;95673.72;4916750;29;20139;-83
2022/06/04 04:56:07;;;;;;;40.05;27.60;;;;;;;21.23;63.92;95665.75;4933013;29;20110;-83
2022/06/04 04:58:32;;;;;;;28.25;19.30;;;;;;;21.04;62.96;95623.84;4934593;29;20071;-84
2022/06/04 05:00:57;;;;;;;25.15;17.17;;;;;;;21.01;63.58;95634.47;4934621;29;20063;-83
2022/06/04 05:03:23;;;;;;;24.23;14.52;;;;;;;21.73;63.71;95742.03;4916839;29;20036;-83
2022/06/04 05:06:03;;;;;;;22.05;15.30;;;;;;;21.98;62.89;95732.13;4934017;29;20047;-84
2022/06/04 05:08:29;;;;;;;29.20;15.05;;;;;;;21.80;62.57;95695.59;4932946;29;20051;-84
2022/06/04 05:10:55;;;;;;;21.02;14.60;;;;;;;22.25;62.00;95731.56;4934784;29;20040;-83
2022/06/04 05:13:20;;;;;;;26.02;16.13;;;;;;;22.08;62.68;95737.13;4934149;29;20047;-83
2022/06/04 05:15:46;;;;;;;23.58;14.82;;;;;;;21.88;61.78;95655.03;4934444;29;20035;-83
2022/06/04 05:18:12;;;;;;;26.55;15.35;;;;;;;22.49;61.41;95730.03;4916762;29;20122;-83
2022/06/04 05:20:38;;;;;;;30.10;14.88;;;;;;;22.05;61.35;95659.47;4933060;29;20521;-83
2022/06/04 05:23:03;;;;;;;28.95;15.70;;;;;;;21.95;61.48;95668.75;4934033;29;20046;-84
2022/06/04 05:25:29;;;;;;;35.63;15.90;;;;;;;21.99;60.94;95646.50;4933949;29;20047;-83
2022/06/04 05:27:54;;;;;;;30.15;15.68;;;;;;;22.78;60.89;95745.28;4916839;29;20495;-83
2022/06/04 05:30:20;;;;;;;22.05;15.48;;;;;;;22.54;60.58;95713.59;4917426;29;20058;-84
2022/06/04 05:32:46;;;;;;;26.42;15.15;;;;;;;22.58;60.18;95723.38;4918165;29;20039;-83
2022/06/04 05:35:11;;;;;;;23.27;15.27;;;;;;;22.40;59.99;95667.97;4936203;29;20038;-84
2022/06/04 05:37:36;;;;;;;23.80;15.00;;;;;;;22.39;59.66;95646.69;4917061;29;20040;-83
2022/06/04 05:40:04;;;;;;;22.02;15.68;;;;;;;;;;4953490;29;20040;-84
2022/06/04 05:42:29;;;;;;;23.63;15.90;;;;;;;22.49;59.14;95651.66;4953484;29;20027;-84
2022/06/04 05:44:54;;;;;;;27.70;16.02;;;;;;;22.54;59.10;95646.00;4948184;28;20096;-84
2022/06/04 05:47:20;;;;;;;23.08;15.77;;;;;;;23.15;58.80;95740.66;4936720;29;20536;-84
2022/06/04 05:49:45;;;;;;;27.10;14.40;;;;;;;23.01;58.52;95693.13;4918388;29;20039;-84
2022/06/04 05:52:11;;;;;;;25.35;15.75;;;;;;;23.06;58.65;95708.31;4917922;29;20039;-83
2022/06/04 05:54:36;;;;;;;25.77;16.05;;;;;;;22.91;58.90;95706.28;4933103;28;20090;-84
2022/06/04 05:57:02;;;;;;;24.38;16.08;;;;;;;22.94;58.94;95692.09;4916828;29;20040;-83
2022/06/04 05:59:27;;;;;;;28.23;16.60;;;;;;;22.91;59.18;95700.88;4916409;29;20056;-83
2022/06/04 06:01:53;;;;;;;27.48;15.40;;;;;;;22.96;58.97;95708.78;4916409;29;20427;-83
2022/06/04 06:04:20;;;;;;;22.15;14.85;;;;;;;23.05;58.59;95706.72;4934319;29;20624;-84
2022/06/04 06:06:49;;;;;;;21.75;15.75;;;;;;;23.21;58.46;95709.53;4916754;29;20606;-83
2022/06/04 06:09:17;;;;;;;25.63;14.55;;;;;;;22.68;58.31;95614.00;4936942;29;20048;-83
2022/06/04 06:11:44;;;;;;;27.92;15.38;;;;;;;22.72;57.56;95604.09;4937084;29;20040;-84
2022/06/04 06:14:10;;;;;;;21.30;14.45;;;;;;;23.51;58.08;95727.09;4935951;29;20403;-83
2022/06/04 06:16:40;;;;;;;25.25;14.80;;;;;;;22.98;57.83;95626.16;4937215;29;20102;-84
2022/06/04 06:19:06;;;;;;;24.58;14.35;;;;;;;22.44;57.55;95530.25;4935593;29;20114;-83
2022/06/04 06:21:34;;;;;;;28.30;15.23;;;;;;;23.71;57.50;95733.50;4919944;29;20032;-83
2022/06/04 06:24:00;;;;;;;26.35;14.70;;;;;;;23.31;58.07;95692.84;4919483;29;20043;-83
2022/06/04 06:26:34;;;;;;;26.30;15.30;;;;;;;23.26;57.79;95687.66;4920076;29;20374;-83
2022/06/04 06:29:03;;;;;;;33.97;15.77;;;;;;;23.18;57.86;95653.41;4919439;29;20138;-83
2022/06/04 06:31:29;;;;;;;27.38;15.15;;;;;;;23.58;58.23;95721.88;4919284;29;20043;-83
2022/06/04 06:33:56;;;;;;;29.95;14.80;;;;;;;23.07;58.43;95626.03;4936170;29;20101;-83
2022/06/04 06:36:22;;;;;;;26.52;15.05;;;;;;;23.69;58.31;95723.00;4918941;29;20051;-83
2022/06/04 06:38:48;;;;;;;30.25;14.90;;;;;;;22.85;58.00;95592.16;4918831;29;20108;-83
2022/06/04 06:41:15;;;;;;;30.65;14.38;;;;;;;22.54;58.28;95538.69;4935765;29;20038;-83
2022/06/04 06:43:50;;;;;;;27.65;14.57;;;;;;;23.73;57.92;95718.44;4918875;29;20498;-83
2022/06/04 06:46:23;;;;;;;29.23;15.77;;;;;;;23.23;58.02;95631.53;4918791;29;20562;-83
2022/06/04 06:48:51;;;;;;;21.90;14.52;;;;;;;23.69;57.95;95701.34;4935073;29;20031;-83
2022/06/04 06:51:23;;;;;;;25.52;14.77;;;;;;;23.58;57.92;95653.41;4919010;29;20047;-83
2022/06/04 06:53:49;;;;;;;26.98;15.20;;;;;;;23.85;57.89;95685.13;4918766;29;20043;-83
2022/06/04 06:56:20;;;;;;;28.25;14.32;;;;;;;23.91;58.10;95693.78;4919302;29;20047;-83
2022/06/04 06:58:46;;;;;;;23.52;15.25;;;;;;;23.96;58.28;95696.25;4935853;29;20045;-83
2022/06/04 07:01:13;;;;;;;20.50;13.65;;;;;;;23.89;58.28;95690.63;4936712;29;20043;-83
2022/06/04 07:03:40;;;;;;;22.33;14.85;;;;;;;23.64;59.04;95644.72;4918889;29;20264;-83
2022/06/04 07:06:07;;;;;;;31.42;15.18;;;;;;;23.81;58.37;95693.16;4935146;29;20039;-83
2022/06/04 07:08:37;;;;;;;27.35;13.05;;;;;;;23.98;58.02;95688.56;4936215;29;20042;-84
2022/06/04 07:11:03;;;;;;;25.98;13.63;;;;;;;23.59;57.63;95607.06;4936671;29;20555;-84
2022/06/04 07:13:28;;;;;;;19.70;11.85;;;;;;;23.79;58.07;95625.03;4935054;29;20134;-83
2022/06/04 07:15:54;;;;;;;19.60;10.80;;;;;;;24.08;56.99;95680.72;4918274;29;20047;-83
2022/06/04 07:18:19;;;;;;;27.88;12.07;;;;;;;23.33;56.58;95553.34;4935933;29;20042;-83
2022/06/04 07:20:45;;;;;;;21.30;10.30;;;;;;;24.28;56.57;95668.09;4918054;29;20028;-83
2022/06/04 07:23:11;;;;;;;20.00;10.65;;;;;;;23.63;55.87;95563.84;4919064;29;20134;-84
2022/06/04 07:25:37;;;;;;;18.98;9.85;;;;;;;23.89;57.13;95579.56;4919684;29;20032;-83
2022/06/04 07:28:04;;;;;;;24.75;9.77;;;;;;;24.54;56.95;95665.66;4919591;29;20042;-83
2022/06/04 07:30:29;;;;;;;21.40;10.00;;;;;;;24.23;55.74;95585.13;4935936;29;20122;-84
2022/06/04 07:32:55;;;;;;;13.88;9.75;;;;;;;24.80;55.50;95656.16;4936535;29;20067;-84
2022/06/04 07:35:20;;;;;;;20.10;9.50;;;;;;;24.59;55.27;95591.38;4936318;29;20102;-84
2022/06/04 07:37:46;;;;;;;17.80;10.90;;;;;;;24.85;55.78;95615.22;4918579;29;20437;-83
2022/06/04 07:40:12;;;;;;;19.80;10.00;;;;;;;24.48;54.91;95550.50;4918313;29;20031;-83
2022/06/04 07:42:37;;;;;;;24.75;9.27;;;;;;;24.63;55.08;95553.53;4918316;29;20098;-83
2022/06/04 07:45:04;;;;;;;18.77;9.98;;;;;;;25.17;54.66;95600.47;4935494;29;20066;-84
2022/06/04 07:47:29;;;;;;;16.17;10.00;;;;;;;24.98;53.90;95543.44;4918422;29;20142;-85
2022/06/04 07:49:55;;;;;;;21.75;10.00;;;;;;;24.71;52.60;95473.88;4918143;29;20115;-84
2022/06/04 07:52:21;;;;;;;20.35;9.32;;;;;;;25.48;52.36;95564.22;4917817;29;20348;-84
2022/06/04 07:54:46;;;;;;;25.85;10.23;;;;;;;25.71;52.14;95592.22;4934761;29;20047;-84
2022/06/04 07:57:12;;;;;;;24.73;9.02;;;;;;;26.00;52.54;95590.03;4935089;29;20039;-84
2022/06/04 07:59:37;;;;;;;17.63;9.05;;;;;;;25.28;53.28;95470.38;4918192;29;20054;-84
2022/06/04 08:02:03;;;;;;;21.20;9.23;;;;;;;26.18;51.89;95580.25;4917814;29;20039;-84
2022/06/04 08:04:28;;;;;;;20.38;8.32;;;;;;;26.07;51.17;95579.28;4917372;29;20415;-84
2022/06/04 08:06:54;;;;;;;18.23;8.40;;;;;;;26.36;51.58;95577.84;4935348;29;20118;-84
2022/06/04 08:09:19;;;;;;;30.27;8.70;;;;;;;26.52;51.33;95575.78;4917448;29;20035;-84
2022/06/04 08:11:44;;;;;;;22.48;7.93;;;;;;;26.59;49.62;95562.28;4917826;29;20039;-84
2022/06/04 08:14:22;;;;;;;18.80;7.22;;;;;;;27.37;49.05;95619.75;4934378;29;20039;-84
2022/06/04 08:16:55;;;;;;;24.65;8.02;;;;;;;27.38;48.42;95622.09;4934803;29;20039;-84
2022/06/04 08:19:22;;;;;;;12.95;7.18;;;;;;;26.39;47.67;95461.00;4917654;29;20047;-84
2022/06/04 08:21:49;;;;;;;17.55;6.65;;;;;;;26.91;50.03;95565.47;4917560;29;20071;-84
2022/06/04 08:24:15;;;;;;;14.73;7.03;;;;;;;27.42;49.43;95616.69;4935530;29;20057;-84
2022/06/04 08:26:42;;;;;;;11.13;6.43;;;;;;;27.27;49.02;95564.00;4917332;29;20035;-84
2022/06/04 08:29:08;;;;;;;13.63;6.25;;;;;;;27.44;47.78;95560.69;4917368;29;20122;-84
2022/06/04 08:31:34;;;;;;;12.60;6.20;;;;;;;27.82;46.73;95575.13;4916746;29;20122;-83
2022/06/04 08:34:00;;;;;;;10.68;5.85;;;;;;;27.40;46.53;95491.78;4934728;29;20131;-84
2022/06/04 08:36:26;;;;;;;12.38;6.22;;;;;;;28.25;47.30;95603.59;4935268;29;20039;-84
2022/06/04 08:38:51;;;;;;;13.18;6.13;;;;;;;27.32;47.57;95465.63;4934868;29;20047;-84
2022/06/04 08:41:43;;;;;;;19.20;6.97;;;;;;;27.54;48.11;95535.53;4934883;29;20032;-83
2022/06/04 08:44:22;;;;;;;14.32;6.60;;;;;;;28.13;47.34;95590.22;4888792;29;20111;-84
2022/06/04 08:46:56;;;;;;;15.52;6.00;;;;;;;28.14;47.07;95580.91;4933661;29;20630;-84
2022/06/04 08:49:31;;;;;;;12.63;5.80;;;;;;;28.21;46.11;95598.13;4917606;29;20562;-83
2022/06/04 08:52:00;;;;;;;19.70;6.13;;;;;;;27.72;44.66;95492.13;4934135;29;20040;-84
2022/06/04 08:57:32;;;;;;;9.40;4.93;;;;;;;28.08;44.62;95530.56;4904716;29;20495;-84
2022/06/04 09:00:24;;;;;;;11.45;4.90;;;;;;;28.50;43.63;95576.53;4914251;29;20076;-84
2022/06/04 09:03:11;;;;;;;11.80;4.90;;;;;;;28.59;44.06;95572.31;4899988;29;20134;-83
2022/06/04 09:06:15;;;;;;;13.10;4.82;;;;;;;28.58;42.58;95573.47;4933684;29;20076;-84
2022/06/04 09:09:08;;;;;;;15.52;5.60;;;;;;;28.66;41.96;95575.09;4935089;29;20036;-84
2022/06/04 09:11:55;;;;;;;10.55;4.53;;;;;;;28.47;41.51;95541.81;4916802;29;20036;-84
2022/06/04 09:14:41;;;;;;;12.45;5.38;;;;;;;28.66;41.39;95572.38;4907273;29;20059;-83
2022/06/04 09:17:24;;;;;;;9.63;4.43;;;;;;;28.37;41.30;95535.16;4930454;29;20035;-84
2022/06/04 09:19:55;;;;;;;11.00;4.72;;;;;;;28.73;41.17;95583.34;4923800;29;20028;-84
2022/06/04 09:22:26;;;;;;;11.00;4.72;;;;;;;28.18;40.81;95489.81;4904945;29;20050;-84
2022/06/04 09:24:52;;;;;;;7.50;4.22;;;;;;;28.90;40.86;95571.00;4922489;29;20106;-84
2022/06/04 09:27:32;;;;;;;9.95;5.45;;;;;;;28.82;42.20;95582.25;4904906;29;20039;-84
2022/06/04 09:30:04;;;;;;;9.40;5.18;;;;;;;28.77;43.17;95581.44;4904585;29;20051;-84
2022/06/04 09:32:50;;;;;;;8.00;4.82;;;;;;;28.97;41.25;95583.91;4889534;29;20044;-84
2022/06/04 09:35:18;;;;;;;6.70;4.70;;;;;;;29.11;40.85;95562.13;4887664;29;20040;-83
2022/06/04 09:37:47;;;;;;;9.65;4.35;;;;;;;29.11;40.96;95549.25;4917000;29;20032;-83
2022/06/04 09:40:25;;;;;;;16.50;5.00;;;;;;;29.39;39.33;95584.13;4934094;29;20078;-85
2022/06/04 09:42:50;;;;;;;12.75;5.28;;;;;;;28.72;39.47;95537.31;4936290;29;20023;-84
2022/06/04 09:45:26;;;;;;;9.57;4.70;;;;;;;29.32;39.36;95564.94;4937700;29;20043;-84
2022/06/04 09:47:55;;;;;;;10.77;4.60;;;;;;;29.12;38.14;95552.75;4920567;29;20043;-84
2022/06/04 09:50:34;;;;;;;8.75;4.80;;;;;;;29.75;38.70;95578.78;4920105;29;20032;-84
2022/06/04 09:53:11;;;;;;;10.32;4.80;;;;;;;30.06;39.33;95589.00;4919616;29;20545;-84
2022/06/04 09:55:45;;;;;;;11.40;4.55;;;;;;;30.06;36.90;95553.44;4920077;29;20043;-84
2022/06/04 09:58:29;;;;;;;12.45;4.28;;;;;;;30.28;36.20;95551.53;4919620;29;20491;-84
2022/06/04 10:01:05;;;;;;;15.05;4.93;;;;;;;30.18;35.92;95505.81;4937522;29;20079;-84
2022/06/04 10:03:33;;;;;;;6.78;4.30;;;;;;;30.50;37.48;95572.28;4920524;29;20433;-84
2022/06/04 10:06:06;;;;;;;12.27;4.57;;;;;;;30.47;37.12;95575.75;4919466;29;20135;-83
2022/06/04 10:09:55;;;;;;;12.40;4.38;;;;;;;29.33;36.99;95569.25;4937454;29;20496;-83
2022/06/04 10:11:22;;;;;;;10.68;4.07;;;;;;;29.54;37.15;95519.38;4936496;29;20043;-83
2022/06/04 10:13:50;;;;;;;8.85;4.05;;;;;;;29.66;36.89;95510.81;4936668;29;20062;-84
2022/06/04 10:16:22;;;;;;;14.18;4.05;;;;;;;30.12;37.27;95562.06;4937277;29;20028;-84
2022/06/04 10:18:58;;;;;;;12.25;4.78;;;;;;;29.53;36.93;95501.41;4919962;29;20032;-83
2022/06/04 10:21:29;;;;;;;9.15;4.10;;;;;;;28.61;37.45;95458.09;4937057;29;20032;-83
2022/06/04 10:23:57;;;;;;;11.70;4.35;;;;;;;29.01;37.32;95470.78;4937181;29;20059;-83
2022/06/04 10:26:42;;;;;;;9.55;4.18;;;;;;;28.34;37.43;95454.84;4932418;29;20111;-84
2022/06/04 10:29:11;;;;;;;13.13;4.63;;;;;;;29.17;37.53;95552.38;4936976;29;20040;-83
2022/06/04 10:32:13;;;;;;;12.88;4.88;;;;;;;29.02;37.37;95548.81;4937373;29;20035;-83
2022/06/04 10:34:39;;;;;;;13.02;4.55;;;;;;;29.29;38.01;95551.28;4938043;29;20020;-84
2022/06/04 10:37:10;;;;;;;11.23;4.70;;;;;;;29.53;36.49;95543.19;4937759;29;20090;-83
2022/06/04 10:40:03;;;;;;;11.80;4.60;;;;;;;29.51;36.76;95544.75;4937032;29;20019;-85
2022/06/04 10:42:37;;;;;;;12.40;4.70;;;;;;;29.29;37.31;95532.16;4937246;29;20043;-85
2022/06/04 10:45:16;;;;;;;12.02;4.65;;;;;;;29.68;36.10;95529.53;4936596;29;20086;-84
2022/06/04 10:48:01;;;;;;;8.88;4.40;;;;;;;29.39;36.28;95463.91;4936870;29;20035;-84
2022/06/04 10:53:56;;;;;;;13.32;4.95;;;;;;;29.85;36.83;95496.78;4905821;29;20044;-84
2022/06/04 10:56:28;;;;;;;9.45;4.68;;;;;;;30.38;36.23;95528.06;4936536;29;20114;-85
2022/06/04 10:59:17;;;;;;;9.52;4.95;;;;;;;30.77;35.66;95522.56;4919204;29;20059;-85
2022/06/04 11:01:49;;;;;;;9.43;4.50;;;;;;;31.38;34.55;95516.50;4917648;29;20114;-84
2022/06/04 11:04:33;;;;;;;10.30;4.72;;;;;;;31.29;34.45;95474.25;4905383;29;20040;-84
2022/06/04 11:07:19;;;;;;;11.82;5.18;;;;;;;31.83;34.87;95511.16;4918699;29;20982;-85
2022/06/04 11:09:45;;;;;;;11.32;4.75;;;;;;;31.70;32.28;95436.84;4936393;29;20031;-85
2022/06/04 11:12:34;;;;;;;14.95;4.40;;;;;;;31.81;31.81;95420.31;4918301;29;20027;-85
2022/06/04 11:15:17;;;;;;;8.95;4.88;;;;;;;32.83;32.04;95503.66;4906346;29;20039;-85
2022/06/04 11:17:54;;;;;;;10.77;4.68;;;;;;;33.14;31.93;95493.50;4923096;29;20509;-83
2022/06/04 11:20:26;;;;;;;13.52;5.28;;;;;;;33.07;30.95;95493.59;4905857;29;20490;-84
2022/06/04 11:23:04;;;;;;;15.40;5.82;;;;;;;33.49;30.93;95497.78;4906411;29;20054;-82
2022/06/04 11:25:34;;;;;;;15.07;5.25;;;;;;;33.54;29.70;95488.28;4923074;29;20043;-83
2022/06/04 11:28:07;;;;;;;11.88;5.55;;;;;;;33.49;30.18;95433.78;4923622;29;20043;-83
2022/06/04 11:31:06;;;;;;;10.15;5.30;;;;;;;34.45;31.25;95493.59;4906327;29;20141;-84
2022/06/04 11:33:46;;;;;;;15.90;5.63;;;;;;;34.28;29.03;95473.44;4923241;29;20208;-82
2022/06/04 11:36:33;;;;;;;12.20;5.20;;;;;;;34.71;29.00;95492.72;4923475;29;20078;-83
2022/06/04 11:39:36;;;;;;;10.23;5.47;;;;;;;34.58;28.54;95417.41;4905957;29;20062;-84
2022/06/04 11:42:23;;;;;;;12.85;5.72;;;;;;;34.86;28.71;95490.53;4923454;29;20499;-83
2022/06/04 11:45:20;;;;;;;13.68;5.63;;;;;;;34.93;28.63;95456.53;4924020;29;20411;-83
2022/06/04 11:48:07;;;;;;;19.23;6.40;;;;;;;34.92;29.54;95486.06;4924023;29;20043;-84
2022/06/04 11:50:44;;;;;;;16.10;5.78;;;;;;;34.96;28.54;95461.97;4905467;29;20044;-84
2022/06/04 11:53:16;;;;;;;17.10;6.03;;;;;;;35.20;28.69;95491.00;4922770;29;20052;-84
2022/06/04 11:55:48;;;;;;;15.05;7.50;;;;;;;34.57;29.49;95486.69;4922654;29;20107;-83
2022/06/04 11:58:26;;;;;;;20.13;7.38;;;;;;;34.16;29.91;95478.75;4905812;29;20082;-84